Terminal Aerodrome Forecast
Issued by NWS Louisville, KY

Home | Current Version | Previous Version | Text Only | Print | Product List | Glossary On
Versions: 1 2 3 4 5 6 7 8 9 10 11 12 13 14 15 16
000
FTUS43 KLMK 050529
TAFSDF
TAF
KSDF 050529Z 0506/0612 VRB04KT 6SM BR BKN250
      TEMPO 0510/0513 5SM BR
     FM051300 VRB03KT P6SM VCSH SCT030 BKN180
     FM052100 20006KT P6SM -SHRA VCTS BKN050CB BKN120
     FM060400 15003KT P6SM VCSH SCT050 BKN120=

USA.gov is the U.S. government's official web portal to all federal, state and local government web resources and services.